Terminal Aerodrome Forecast
Issued by NWS

Home | Current Version | Previous Version | Text Only | Print | Product List | Glossary On
Versions: 1 2 3 4 5 6 7 8 9 10 11 12 13 14 15 16 17 18 19 20 21 22 23 24 25 26 27 28 29 30 31 32 33 34 35 36 37 38
710
FTUS46 KPQR 280030 AAA
TAFONP
TAF AMD
KONP 280030Z 2801/2824 35014KT P6SM OVC007
     FM280700 36004KT 4SM BR BKN005
     FM281700 35018G30KT P6SM SCT007=

USA.gov is the U.S. government's official web portal to all federal, state and local government web resources and services.